EGHE/ISC METAR and TAF weather

Enter ICAO airport designator
Station Type Date Time Source
EGHE METAR 2019/07/17 16:50 UTC NOAA

EGHE 171650Z 23018KT 9999 FEW015 19/15 Q1013


Station Type Date Time Source
EGHE Decoded METAR 2019/07/17 16:50 UTC NOAA

Scilly, Saint Mary'S, United Kingdom (EGHE) 49-55N 006-18W 0M
Jul 17, 2019 - 12:50 PM EDT / 2019.07.17 1650 UTC
Wind: from the SW (230 degrees) at 21 MPH (18 KT):0
Visibility: greater than 7 mile(s):0
Sky conditions: mostly clear
Temperature: 66 F (19 C)
Dew Point: 59 F (15 C)
Relative Humidity: 77%
Pressure (altimeter): 29.91 in. Hg (1013 hPa)
ob: EGHE 171650Z 23018KT 9999 FEW015 19/15 Q1013
cycle: 17

Station Type Date Time Source
EGHE TAF UTC NOAA

Error!

Example: see airport list